San Antonio, Texas
Traffic Map
Current Weather Conditions
San Antonio, Texas
Clear
Clear
82°
Feels Like: 88°
Wind Chill: 82° Ceiling: Unl
Heat Index: 88° Visibility: 10mi
Dew Point: 72° Wind: 14mph
Humidity: 71% Direction: 150° (SSE)
Pressure: 29.95in Gusts: 0mph
Raw Report DataKSKF 250558Z 15012KT 10SM CLR 28/22 A2995 RMK AO2A SLP133 T02800224 10371 20280 403770248 51018 $
Traffic Incident Summary
Active as of:
Severity:
Category:
InformationThere was an issue retrieving the traffic information for this location. Please try a different location or try again shortly.
Advertisements
Track Severe Weather on mobile